createdAt,value
2018-09-25T00:00:32.042Z,1022.88
2018-09-25T00:01:32.007Z,1022.85
2018-09-25T00:02:31.986Z,1022.88
2018-09-25T00:03:31.984Z,1022.88
2018-09-25T00:04:31.936Z,1022.92
2018-09-25T00:05:31.968Z,1022.92
2018-09-25T00:06:31.915Z,1022.92
2018-09-25T00:07:31.894Z,1022.92
2018-09-25T00:08:31.905Z,1022.90
2018-09-25T00:09:31.820Z,1022.88
2018-09-25T00:10:31.826Z,1022.93
2018-09-25T00:11:31.810Z,1022.95
2018-09-25T00:12:31.765Z,1022.94
2018-09-25T00:13:31.779Z,1022.96
2018-09-25T00:14:31.707Z,1022.94
2018-09-25T00:15:31.723Z,1022.94
2018-09-25T00:16:31.670Z,1022.96
2018-09-25T00:17:31.647Z,1022.97
2018-09-25T00:18:31.624Z,1022.95
2018-09-25T00:19:31.611Z,1022.91
2018-09-25T00:20:31.586Z,1022.90
2018-09-25T00:21:31.576Z,1022.90
2018-09-25T00:22:31.530Z,1022.89
2018-09-25T00:23:31.537Z,1022.89
2018-09-25T00:24:31.492Z,1022.84
2018-09-25T00:25:31.471Z,1022.83
2018-09-25T00:26:31.445Z,1022.86
2018-09-25T00:27:31.451Z,1022.87
2018-09-25T00:28:31.430Z,1022.85
2018-09-25T00:29:31.384Z,1022.88
2018-09-25T00:30:31.341Z,1022.87
2018-09-25T00:31:31.357Z,1022.91
2018-09-25T00:32:31.299Z,1022.90
2018-09-25T00:33:31.300Z,1022.92
2018-09-25T00:34:31.243Z,1022.97
2018-09-25T00:35:31.224Z,1023.00
2018-09-25T00:36:31.234Z,1022.95
2018-09-25T00:37:31.216Z,1023.00
2018-09-25T00:38:31.175Z,1023.04
2018-09-25T00:39:31.148Z,1023.02
2018-09-25T00:40:31.150Z,1023.07
2018-09-25T00:41:31.114Z,1023.03
2018-09-25T00:42:31.069Z,1023.04
2018-09-25T00:43:31.073Z,1023.04
2018-09-25T00:44:31.020Z,1023.05
2018-09-25T00:45:31.019Z,1023.05
2018-09-25T00:46:30.974Z,1023.07
2018-09-25T00:47:30.984Z,1023.06
2018-09-25T00:48:30.948Z,1023.04
2018-09-25T00:49:30.902Z,1023.02
2018-09-25T00:50:30.887Z,1023.02
2018-09-25T00:51:30.861Z,1023.02
2018-09-25T00:52:30.846Z,1023.02
2018-09-25T00:53:30.823Z,1023.07
2018-09-25T00:54:30.824Z,1023.02
2018-09-25T00:55:30.779Z,1023.04
2018-09-25T00:56:30.772Z,1023.08
2018-09-25T00:57:30.751Z,1023.06
2018-09-25T00:58:30.708Z,1023.08
2018-09-25T00:59:30.673Z,1023.06
2018-09-25T01:00:30.641Z,1023.08
2018-09-25T01:01:30.619Z,1023.06
2018-09-25T01:02:30.640Z,1023.08
2018-09-25T01:03:30.581Z,1023.09
2018-09-25T01:04:30.556Z,1023.10
2018-09-25T01:05:30.529Z,1023.09
2018-09-25T01:06:30.531Z,1023.09
2018-09-25T01:07:30.501Z,1023.08
2018-09-25T01:08:30.455Z,1023.10
2018-09-25T01:09:30.463Z,1023.05
2018-09-25T01:10:30.435Z,1023.08
2018-09-25T01:11:30.391Z,1023.11
2018-09-25T01:12:30.407Z,1023.08
2018-09-25T01:13:30.344Z,1023.07
2018-09-25T01:14:30.331Z,1023.11
2018-09-25T01:15:30.301Z,1023.07
2018-09-25T01:16:30.298Z,1023.04
2018-09-25T01:17:30.276Z,1023.05
2018-09-25T01:18:30.226Z,1023.08
2018-09-25T01:19:30.203Z,1023.06
2018-09-25T01:20:30.186Z,1023.11
2018-09-25T01:21:30.166Z,1023.12
2018-09-25T01:22:30.163Z,1023.16
2018-09-25T01:23:30.167Z,1023.18
2018-09-25T01:24:30.101Z,1023.16
2018-09-25T01:25:30.063Z,1023.16
2018-09-25T01:26:30.040Z,1023.17
2018-09-25T01:27:30.059Z,1023.19
2018-09-25T01:28:29.999Z,1023.17
2018-09-25T01:29:29.971Z,1023.18
2018-09-25T01:30:29.950Z,1023.19
2018-09-25T01:31:29.926Z,1023.18
2018-09-25T01:32:29.901Z,1023.18
2018-09-25T01:33:29.880Z,1023.22
2018-09-25T01:34:29.859Z,1023.20
2018-09-25T01:35:29.865Z,1023.18
2018-09-25T01:36:29.808Z,1023.21
2018-09-25T01:37:29.784Z,1023.22
2018-09-25T01:38:29.810Z,1023.19
2018-09-25T01:39:29.737Z,1023.19
2018-09-25T01:40:29.723Z,1023.19
2018-09-25T01:41:29.699Z,1023.19
2018-09-25T01:42:29.702Z,1023.19
2018-09-25T01:43:29.665Z,1023.21
2018-09-25T01:44:29.636Z,1023.23
2018-09-25T01:45:29.597Z,1023.26
2018-09-25T01:46:29.578Z,1023.25
2018-09-25T01:47:29.609Z,1023.23
2018-09-25T01:48:29.545Z,1023.27
2018-09-25T01:49:29.535Z,1023.23
2018-09-25T01:50:29.500Z,1023.26
2018-09-25T01:51:29.478Z,1023.21
2018-09-25T01:52:29.448Z,1023.23
2018-09-25T01:53:29.410Z,1023.23
2018-09-25T01:54:29.434Z,1023.22
2018-09-25T01:55:29.365Z,1023.23
2018-09-25T01:56:29.357Z,1023.27
2018-09-25T01:57:29.328Z,1023.27
2018-09-25T01:58:29.303Z,1023.25
2018-09-25T01:59:29.278Z,1023.30
2018-09-25T02:00:29.282Z,1023.25
2018-09-25T02:01:29.231Z,1023.26
2018-09-25T02:02:29.211Z,1023.26
2018-09-25T02:03:29.180Z,1023.28
2018-09-25T02:04:29.177Z,1023.30
2018-09-25T02:05:29.133Z,1023.31
2018-09-25T02:06:29.135Z,1023.29
2018-09-25T02:07:29.097Z,1023.29
2018-09-25T02:08:29.083Z,1023.34
2018-09-25T02:09:29.052Z,1023.31
2018-09-25T02:10:29.019Z,1023.33
2018-09-25T02:11:29.013Z,1023.30
2018-09-25T02:12:28.964Z,1023.31
2018-09-25T02:13:28.955Z,1023.30
2018-09-25T02:14:28.932Z,1023.30
2018-09-25T02:15:28.912Z,1023.29
2018-09-25T02:16:28.908Z,1023.28
2018-09-25T02:17:28.875Z,1023.27
2018-09-25T02:18:28.854Z,1023.26
2018-09-25T02:19:28.826Z,1023.26
2018-09-25T02:20:28.778Z,1023.30
2018-09-25T02:21:28.760Z,1023.33
2018-09-25T02:22:28.740Z,1023.28
2018-09-25T02:23:28.742Z,1023.33
2018-09-25T02:24:28.688Z,1023.28
2018-09-25T02:25:28.664Z,1023.32
2018-09-25T02:26:28.652Z,1023.34
2018-09-25T02:27:28.620Z,1023.35
2018-09-25T02:28:28.608Z,1023.37
2018-09-25T02:29:28.606Z,1023.39
2018-09-25T02:30:28.580Z,1023.35
2018-09-25T02:31:28.538Z,1023.30
2018-09-25T02:32:28.518Z,1023.27
2018-09-25T02:33:28.500Z,1023.28
2018-09-25T02:34:28.478Z,1023.26
2018-09-25T02:35:28.446Z,1023.28
2018-09-25T02:36:28.405Z,1023.25
2018-09-25T02:37:28.414Z,1023.28
2018-09-25T02:38:28.386Z,1023.26
2018-09-25T02:39:28.362Z,1023.24
2018-09-25T02:40:28.315Z,1023.25
2018-09-25T02:41:28.307Z,1023.22
2018-09-25T02:42:28.299Z,1023.22
2018-09-25T02:43:28.275Z,1023.24
2018-09-25T02:44:28.224Z,1023.22
2018-09-25T02:45:28.208Z,1023.23
2018-09-25T02:46:28.169Z,1023.23
2018-09-25T02:47:28.167Z,1023.22
2018-09-25T02:48:28.120Z,1023.19
2018-09-25T02:49:28.118Z,1023.21
2018-09-25T02:50:28.096Z,1023.19
2018-09-25T02:51:28.061Z,1023.15
2018-09-25T02:52:28.055Z,1023.17
2018-09-25T02:53:28.044Z,1023.12
2018-09-25T02:54:27.987Z,1023.09
2018-09-25T02:55:27.978Z,1023.08
2018-09-25T02:56:27.940Z,1023.10
2018-09-25T02:57:27.936Z,1023.12
2018-09-25T02:58:27.886Z,1023.11
2018-09-25T02:59:27.865Z,1023.13
2018-09-25T03:00:27.856Z,1023.11
2018-09-25T03:01:27.819Z,1023.07
2018-09-25T03:02:27.792Z,1023.11
2018-09-25T03:03:27.770Z,1023.10
2018-09-25T03:04:27.743Z,1023.09
2018-09-25T03:05:27.754Z,1023.10
2018-09-25T03:06:27.714Z,1023.09
2018-09-25T03:07:27.693Z,1023.11
2018-09-25T03:08:27.649Z,1023.11
2018-09-25T03:09:27.670Z,1023.11
2018-09-25T03:10:27.620Z,1023.14
2018-09-25T03:11:27.576Z,1023.15
2018-09-25T03:12:27.553Z,1023.09
2018-09-25T03:13:27.531Z,1023.12
2018-09-25T03:14:27.510Z,1023.13
2018-09-25T03:15:27.499Z,1023.12
2018-09-25T03:16:27.468Z,1023.14
2018-09-25T03:17:27.445Z,1023.12
2018-09-25T03:18:27.416Z,1023.15
2018-09-25T03:19:27.493Z,1023.14
2018-09-25T03:20:27.416Z,1023.19
2018-09-25T03:21:27.374Z,1023.18
2018-09-25T03:22:27.326Z,1023.26
2018-09-25T03:23:27.318Z,1023.25
2018-09-25T03:24:27.292Z,1023.27
2018-09-25T03:25:27.270Z,1023.26
2018-09-25T03:26:27.227Z,1023.24
2018-09-25T03:27:27.216Z,1023.25
2018-09-25T03:28:27.184Z,1023.25
2018-09-25T03:29:27.160Z,1023.23
2018-09-25T03:30:27.132Z,1023.28
2018-09-25T03:31:27.149Z,1023.27
2018-09-25T03:32:27.100Z,1023.26
2018-09-25T03:33:27.059Z,1023.25
2018-09-25T03:34:27.038Z,1023.23
2018-09-25T03:35:27.019Z,1023.25
2018-09-25T03:36:26.996Z,1023.20
2018-09-25T03:37:26.975Z,1023.20
2018-09-25T03:38:26.941Z,1023.19
2018-09-25T03:39:26.942Z,1023.20
2018-09-25T03:40:26.909Z,1023.18
2018-09-25T03:41:26.888Z,1023.17
2018-09-25T03:42:26.853Z,1023.16
2018-09-25T03:43:26.846Z,1023.13
2018-09-25T03:44:26.808Z,1023.10
2018-09-25T03:45:26.779Z,1023.16
2018-09-25T03:46:26.774Z,1023.18
2018-09-25T03:47:26.746Z,1023.16
2018-09-25T03:48:26.707Z,1023.17
2018-09-25T03:49:26.703Z,1023.18
2018-09-25T03:50:26.662Z,1023.15
2018-09-25T03:51:26.643Z,1023.15
2018-09-25T03:52:26.620Z,1023.10
2018-09-25T03:53:26.590Z,1023.09
2018-09-25T03:54:26.587Z,1023.13
2018-09-25T03:55:26.539Z,1023.08
2018-09-25T03:56:26.527Z,1023.08
2018-09-25T03:57:26.501Z,1023.09
2018-09-25T03:58:26.466Z,1023.14
2018-09-25T03:59:26.475Z,1023.08
2018-09-25T04:00:26.418Z,1023.08
2018-09-25T04:01:26.408Z,1023.04
2018-09-25T04:02:26.395Z,1023.02
2018-09-25T04:03:26.353Z,1023.04
2018-09-25T04:04:26.358Z,1022.99
2018-09-25T04:05:26.329Z,1023.04
2018-09-25T04:06:26.302Z,1023.02
2018-09-25T04:07:26.252Z,1022.99
2018-09-25T04:08:26.230Z,1023.00
2018-09-25T04:09:26.228Z,1023.06
2018-09-25T04:10:26.188Z,1023.07
2018-09-25T04:11:26.190Z,1023.10
2018-09-25T04:12:26.136Z,1023.09
2018-09-25T04:13:26.130Z,1023.06
2018-09-25T04:14:26.106Z,1023.06
2018-09-25T04:15:26.080Z,1023.09
2018-09-25T04:16:26.066Z,1023.11
2018-09-25T04:17:26.070Z,1023.12
2018-09-25T04:18:25.993Z,1023.10
2018-09-25T04:19:25.972Z,1023.10
2018-09-25T04:20:25.948Z,1023.11
2018-09-25T04:21:25.965Z,1023.12
2018-09-25T04:22:25.925Z,1023.12
2018-09-25T04:23:25.894Z,1023.12
2018-09-25T04:24:25.850Z,1023.16
2018-09-25T04:25:25.870Z,1023.14
2018-09-25T04:26:25.830Z,1023.17
2018-09-25T04:27:25.805Z,1023.11
2018-09-25T04:28:25.828Z,1023.15
2018-09-25T04:29:25.751Z,1023.15
2018-09-25T04:30:25.721Z,1023.19
2018-09-25T04:31:25.702Z,1023.23
2018-09-25T04:32:25.661Z,1023.25
2018-09-25T04:33:25.658Z,1023.30
2018-09-25T04:34:25.628Z,1023.26
2018-09-25T04:35:25.628Z,1023.29
2018-09-25T04:36:25.584Z,1023.25
2018-09-25T04:37:25.573Z,1023.30
2018-09-25T04:38:25.538Z,1023.27
2018-09-25T04:39:25.504Z,1023.28
2018-09-25T04:40:25.485Z,1023.30
2018-09-25T04:41:25.471Z,1023.29
2018-09-25T04:42:25.429Z,1023.30
2018-09-25T04:43:25.402Z,1023.33
2018-09-25T04:44:25.389Z,1023.35
2018-09-25T04:45:25.369Z,1023.38
2018-09-25T04:46:25.335Z,1023.41
2018-09-25T04:47:25.330Z,1023.41
2018-09-25T04:48:25.311Z,1023.41
2018-09-25T04:49:25.270Z,1023.38
2018-09-25T04:50:25.238Z,1023.41
2018-09-25T04:51:25.214Z,1023.43
2018-09-25T04:52:25.186Z,1023.43
2018-09-25T04:53:25.159Z,1023.44
2018-09-25T04:54:25.155Z,1023.44
2018-09-25T04:55:25.105Z,1023.50
2018-09-25T04:56:25.114Z,1023.50
2018-09-25T04:57:25.076Z,1023.53
2018-09-25T04:58:25.049Z,1023.55
2018-09-25T04:59:25.035Z,1023.57
2018-09-25T05:00:25.018Z,1023.57
2018-09-25T05:01:24.995Z,1023.57
2018-09-25T05:02:24.946Z,1023.58
2018-09-25T05:03:24.942Z,1023.58
2018-09-25T05:04:24.929Z,1023.59
2018-09-25T05:05:24.869Z,1023.57
2018-09-25T05:06:24.896Z,1023.56
2018-09-25T05:07:24.846Z,1023.55
2018-09-25T05:08:24.816Z,1023.59
2018-09-25T05:09:24.787Z,1023.59
2018-09-25T05:10:24.756Z,1023.57
2018-09-25T05:11:24.775Z,1023.52
2018-09-25T05:12:32.377Z,1023.56
2018-09-25T05:14:19.096Z,1023.56
2018-09-25T05:15:19.048Z,1023.59
2018-09-25T05:16:19.036Z,1023.65
2018-09-25T05:17:18.984Z,1023.63
2018-09-25T05:18:18.971Z,1023.62
2018-09-25T05:19:18.937Z,1023.64
2018-09-25T05:20:18.919Z,1023.60
2018-09-25T05:21:18.895Z,1023.61
2018-09-25T05:22:18.879Z,1023.61
2018-09-25T05:23:18.891Z,1023.63
2018-09-25T05:24:18.818Z,1023.65
2018-09-25T05:25:18.796Z,1023.65
2018-09-25T05:26:18.774Z,1023.67
2018-09-25T05:27:18.745Z,1023.68
2018-09-25T05:28:18.741Z,1023.64
2018-09-25T05:29:18.702Z,1023.69
2018-09-25T05:30:18.672Z,1023.76
2018-09-25T05:31:18.642Z,1023.77
2018-09-25T05:32:18.637Z,1023.75
2018-09-25T05:33:18.607Z,1023.76
2018-09-25T05:34:18.585Z,1023.74
2018-09-25T05:35:18.571Z,1023.76
2018-09-25T05:36:18.529Z,1023.73
2018-09-25T05:37:18.512Z,1023.75
2018-09-25T05:38:18.506Z,1023.75
2018-09-25T05:39:18.460Z,1023.74
2018-09-25T05:40:18.437Z,1023.77
2018-09-25T05:41:18.425Z,1023.73
2018-09-25T05:42:18.422Z,1023.70
2018-09-25T05:43:18.359Z,1023.71
2018-09-25T05:44:18.340Z,1023.68
2018-09-25T05:45:18.329Z,1023.67
2018-09-25T05:46:18.310Z,1023.63
2018-09-25T05:47:18.260Z,1023.64
2018-09-25T05:48:18.282Z,1023.69
2018-09-25T05:49:18.253Z,1023.71
2018-09-25T05:50:18.200Z,1023.73
2018-09-25T05:51:18.164Z,1023.74
2018-09-25T05:52:18.162Z,1023.77
2018-09-25T05:53:18.125Z,1023.77
2018-09-25T05:54:18.111Z,1023.79
2018-09-25T05:55:18.111Z,1023.84
2018-09-25T05:56:18.066Z,1023.83
2018-09-25T05:57:18.050Z,1023.87
2018-09-25T05:58:18.015Z,1023.88
2018-09-25T05:59:17.976Z,1023.86
2018-09-25T06:00:17.968Z,1023.84
2018-09-25T06:01:17.935Z,1023.87
2018-09-25T06:02:17.927Z,1023.85
2018-09-25T06:03:17.879Z,1023.84
2018-09-25T06:04:17.875Z,1023.85
2018-09-25T06:05:17.833Z,1023.86
2018-09-25T06:06:17.812Z,1023.83
2018-09-25T06:07:17.791Z,1023.84
2018-09-25T06:08:17.776Z,1023.78
2018-09-25T06:09:17.810Z,1023.79
2018-09-25T06:10:17.743Z,1023.77
2018-09-25T06:11:17.721Z,1023.81
2018-09-25T06:12:17.689Z,1023.79
2018-09-25T06:13:17.645Z,1023.83
2018-09-25T06:14:17.637Z,1023.80
2018-09-25T06:15:17.612Z,1023.80
2018-09-25T06:16:17.581Z,1023.89
2018-09-25T06:17:17.547Z,1023.87
2018-09-25T06:18:17.531Z,1023.90
2018-09-25T06:19:17.528Z,1023.93
2018-09-25T06:20:17.487Z,1023.94
2018-09-25T06:21:17.460Z,1023.94
2018-09-25T06:22:17.443Z,1023.99
2018-09-25T06:23:17.432Z,1024.00
2018-09-25T06:24:17.392Z,1023.99
2018-09-25T06:25:17.396Z,1024.01
2018-09-25T06:26:17.355Z,1023.98
2018-09-25T06:27:17.342Z,1023.99
2018-09-25T06:28:17.313Z,1024.00
2018-09-25T06:29:17.269Z,1024.05
2018-09-25T06:30:17.255Z,1024.04
2018-09-25T06:31:17.234Z,1024.06
2018-09-25T06:32:17.196Z,1024.05
2018-09-25T06:33:17.182Z,1024.07
2018-09-25T06:34:17.180Z,1024.06
2018-09-25T06:35:17.151Z,1024.10
2018-09-25T06:36:17.101Z,1024.09
2018-09-25T06:37:17.160Z,1024.07
2018-09-25T06:38:17.061Z,1024.10
2018-09-25T06:39:17.030Z,1024.12
2018-09-25T06:40:17.009Z,1024.08
2018-09-25T06:41:16.998Z,1024.10
2018-09-25T06:42:16.979Z,1024.12
2018-09-25T06:43:16.951Z,1024.11
2018-09-25T06:44:16.943Z,1024.13
2018-09-25T06:45:16.903Z,1024.15
2018-09-25T06:46:16.908Z,1024.11
2018-09-25T06:47:16.947Z,1024.12
2018-09-25T06:48:16.835Z,1024.16
2018-09-25T06:49:16.811Z,1024.12
2018-09-25T06:50:16.823Z,1024.12
2018-09-25T06:51:16.769Z,1024.13
2018-09-25T06:52:16.752Z,1024.15
2018-09-25T06:53:16.744Z,1024.20
2018-09-25T06:54:16.698Z,1024.23
2018-09-25T06:55:16.742Z,1024.24
2018-09-25T06:56:16.660Z,1024.23
2018-09-25T06:57:16.655Z,1024.24
2018-09-25T06:58:16.641Z,1024.26
2018-09-25T06:59:16.592Z,1024.27
2018-09-25T07:00:16.589Z,1024.33
2018-09-25T07:01:16.543Z,1024.33
2018-09-25T07:02:16.538Z,1024.42
2018-09-25T07:03:16.510Z,1024.40
2018-09-25T07:04:16.481Z,1024.40
2018-09-25T07:05:16.458Z,1024.44
2018-09-25T07:06:16.436Z,1024.47
2018-09-25T07:07:16.419Z,1024.51
2018-09-25T07:08:16.400Z,1024.50
2018-09-25T07:09:16.372Z,1024.54
2018-09-25T07:10:16.505Z,1024.57
2018-09-25T07:11:16.352Z,1024.60
2018-09-25T07:12:16.319Z,1024.59
2018-09-25T07:13:16.286Z,1024.62
2018-09-25T07:14:16.271Z,1024.63
2018-09-25T07:15:16.266Z,1024.61
2018-09-25T07:16:16.263Z,1024.61
2018-09-25T07:17:16.216Z,1024.61
2018-09-25T07:18:16.304Z,1024.64
2018-09-25T07:19:16.162Z,1024.62
2018-09-25T07:20:16.169Z,1024.61
2018-09-25T07:21:16.118Z,1024.63
2018-09-25T07:22:16.105Z,1024.63
2018-09-25T07:23:16.098Z,1024.67
2018-09-25T07:24:16.074Z,1024.69
2018-09-25T07:25:16.062Z,1024.71
2018-09-25T07:26:16.017Z,1024.68
2018-09-25T07:27:15.992Z,1024.69
2018-09-25T07:28:15.995Z,1024.67
2018-09-25T07:29:15.957Z,1024.71
2018-09-25T07:30:15.935Z,1024.70
2018-09-25T07:31:15.943Z,1024.69
2018-09-25T07:32:15.928Z,1024.73
2018-09-25T07:33:15.877Z,1024.75
2018-09-25T07:34:15.865Z,1024.77
2018-09-25T07:35:15.846Z,1024.78
2018-09-25T07:36:15.832Z,1024.79
2018-09-25T07:37:15.821Z,1024.77
2018-09-25T07:38:15.781Z,1024.81
2018-09-25T07:39:15.760Z,1024.81
2018-09-25T07:40:15.734Z,1024.79
2018-09-25T07:41:15.731Z,1024.78
2018-09-25T07:42:15.684Z,1024.79
2018-09-25T07:43:15.669Z,1024.80
2018-09-25T07:44:15.652Z,1024.82
2018-09-25T07:45:15.638Z,1024.80
2018-09-25T07:46:15.613Z,1024.82
2018-09-25T07:47:15.633Z,1024.83
2018-09-25T07:48:15.563Z,1024.81
2018-09-25T07:49:15.541Z,1024.80
2018-09-25T07:50:15.528Z,1024.78
2018-09-25T07:51:15.509Z,1024.83
2018-09-25T07:52:15.486Z,1024.83
2018-09-25T07:53:15.446Z,1024.88
2018-09-25T07:54:15.436Z,1024.88
2018-09-25T07:55:15.417Z,1024.91
2018-09-25T07:56:15.379Z,1024.90
2018-09-25T07:57:15.411Z,1024.93
2018-09-25T07:58:15.339Z,1024.91
2018-09-25T07:59:15.348Z,1024.92
2018-09-25T08:00:15.402Z,1024.91
2018-09-25T08:01:15.339Z,1024.94
2018-09-25T08:02:15.310Z,1024.93
2018-09-25T08:03:15.373Z,1024.93
2018-09-25T08:04:15.210Z,1024.95
2018-09-25T08:05:15.201Z,1024.95
2018-09-25T08:06:15.171Z,1025.01
2018-09-25T08:07:15.171Z,1025.00
2018-09-25T08:08:15.133Z,1025.05
2018-09-25T08:09:15.117Z,1025.05
2018-09-25T08:10:15.121Z,1025.00
2018-09-25T08:11:15.079Z,1025.02
2018-09-25T08:12:15.044Z,1025.05
2018-09-25T08:13:15.033Z,1025.08
2018-09-25T08:14:15.006Z,1025.05
2018-09-25T08:15:14.985Z,1025.09
2018-09-25T08:16:14.963Z,1025.06
2018-09-25T08:17:14.939Z,1025.06
2018-09-25T08:18:14.952Z,1025.08
2018-09-25T08:19:14.935Z,1025.11
2018-09-25T08:20:14.899Z,1025.10
2018-09-25T08:21:15.936Z,1025.13
2018-09-25T08:22:14.918Z,1025.15
2018-09-25T08:23:14.834Z,1025.14
2018-09-25T08:24:14.823Z,1025.17
2018-09-25T08:25:14.778Z,1025.19
2018-09-25T08:26:14.769Z,1025.18
2018-09-25T08:27:14.731Z,1025.17
2018-09-25T08:28:14.730Z,1025.17
2018-09-25T08:29:14.695Z,1025.22
2018-09-25T08:30:14.691Z,1025.24
2018-09-25T08:31:14.648Z,1025.23
2018-09-25T08:32:14.681Z,1025.25
2018-09-25T08:33:14.611Z,1025.20
2018-09-25T08:34:14.602Z,1025.20
2018-09-25T08:35:14.583Z,1025.20
2018-09-25T08:36:14.549Z,1025.21
2018-09-25T08:37:14.525Z,1025.22
2018-09-25T08:38:14.503Z,1025.23
2018-09-25T08:39:14.509Z,1025.25
2018-09-25T08:40:14.484Z,1025.23
2018-09-25T08:41:14.458Z,1025.25
2018-09-25T08:42:14.417Z,1025.23
2018-09-25T08:43:14.399Z,1025.27
2018-09-25T08:44:14.396Z,1025.27
2018-09-25T08:45:14.376Z,1025.28
2018-09-25T08:46:14.339Z,1025.27
2018-09-25T08:47:14.334Z,1025.30
2018-09-25T08:48:14.316Z,1025.29
2018-09-25T08:49:14.279Z,1025.35
2018-09-25T08:50:14.292Z,1025.36
2018-09-25T08:51:14.229Z,1025.34
2018-09-25T08:52:14.234Z,1025.31
2018-09-25T08:53:14.226Z,1025.26
2018-09-25T08:54:14.183Z,1025.31
2018-09-25T08:55:14.152Z,1025.30
2018-09-25T08:56:14.144Z,1025.30
2018-09-25T08:57:14.106Z,1025.32
2018-09-25T08:58:14.092Z,1025.28
2018-09-25T08:59:14.084Z,1025.31
2018-09-25T09:00:14.049Z,1025.29
2018-09-25T09:01:14.025Z,1025.30
2018-09-25T09:02:14.030Z,1025.31
2018-09-25T09:03:13.990Z,1025.34
2018-09-25T09:04:14.010Z,1025.35
2018-09-25T09:05:13.969Z,1025.29
2018-09-25T09:06:13.947Z,1025.33
2018-09-25T09:07:13.939Z,1025.33
2018-09-25T09:08:13.893Z,1025.38
2018-09-25T09:09:13.867Z,1025.37
2018-09-25T09:10:13.867Z,1025.33
2018-09-25T09:11:13.826Z,1025.37
2018-09-25T09:12:13.826Z,1025.34
2018-09-25T09:13:13.798Z,1025.31
2018-09-25T09:14:13.774Z,1025.29
2018-09-25T09:15:13.771Z,1025.33
2018-09-25T09:16:13.727Z,1025.30
2018-09-25T09:17:13.712Z,1025.30
2018-09-25T09:18:13.711Z,1025.35
2018-09-25T09:19:13.715Z,1025.36
2018-09-25T09:20:13.739Z,1025.33
2018-09-25T09:21:13.852Z,1025.37
2018-09-25T09:22:13.607Z,1025.40
2018-09-25T09:23:13.577Z,1025.40
2018-09-25T09:24:13.560Z,1025.37
2018-09-25T09:25:13.604Z,1025.33
2018-09-25T09:26:13.532Z,1025.39
2018-09-25T09:27:13.520Z,1025.37
2018-09-25T09:28:13.485Z,1025.36
2018-09-25T09:29:13.492Z,1025.31
2018-09-25T09:30:13.469Z,1025.31
2018-09-25T09:31:13.423Z,1025.36
2018-09-25T09:32:13.401Z,1025.31
2018-09-25T09:33:13.396Z,1025.33
2018-09-25T09:34:13.393Z,1025.33
2018-09-25T09:35:13.354Z,1025.35
2018-09-25T09:36:13.332Z,1025.36
2018-09-25T09:37:13.325Z,1025.39
2018-09-25T09:38:13.297Z,1025.38
2018-09-25T09:39:13.283Z,1025.42
2018-09-25T09:40:13.253Z,1025.41
2018-09-25T09:41:13.359Z,1025.43
2018-09-25T09:42:13.207Z,1025.39
2018-09-25T09:43:13.185Z,1025.43
2018-09-25T09:44:13.174Z,1025.42
2018-09-25T09:45:13.155Z,1025.49
2018-09-25T09:46:13.136Z,1025.47
2018-09-25T09:47:13.106Z,1025.48
2018-09-25T09:48:13.140Z,1025.48
2018-09-25T09:49:13.103Z,1025.49
2018-09-25T09:50:13.078Z,1025.48
2018-09-25T09:51:13.023Z,1025.44
2018-09-25T09:52:13.025Z,1025.51
2018-09-25T09:53:13.005Z,1025.44
2018-09-25T09:54:12.961Z,1025.46
2018-09-25T09:55:12.943Z,1025.45
2018-09-25T09:56:13.018Z,1025.49
2018-09-25T09:57:12.915Z,1025.48
2018-09-25T09:58:12.901Z,1025.51
2018-09-25T09:59:12.883Z,1025.56
2018-09-25T10:00:12.867Z,1025.56
2018-09-25T10:01:12.855Z,1025.59
2018-09-25T10:02:12.814Z,1025.61
2018-09-25T10:03:12.798Z,1025.60
2018-09-25T10:04:12.802Z,1025.65
2018-09-25T10:05:12.754Z,1025.66
2018-09-25T10:06:12.771Z,1025.67
2018-09-25T10:08:51.389Z,1025.65
2018-09-25T10:09:45.801Z,1025.62
2018-09-25T10:10:45.771Z,1025.65
2018-09-25T10:11:45.751Z,1025.63
2018-09-25T10:12:45.730Z,1025.67
2018-09-25T10:13:45.716Z,1025.66
2018-09-25T10:14:45.699Z,1025.65
2018-09-25T10:15:45.668Z,1025.63
2018-09-25T10:16:45.655Z,1025.63
2018-09-25T10:17:45.638Z,1025.59
2018-09-25T10:18:45.672Z,1025.60
2018-09-25T10:19:45.594Z,1025.60
2018-09-25T10:20:45.585Z,1025.60
2018-09-25T10:21:45.596Z,1025.58
2018-09-25T10:22:45.537Z,1025.56
2018-09-25T10:23:45.518Z,1025.58
2018-09-25T10:24:45.528Z,1025.60
2018-09-25T10:25:45.490Z,1025.63
2018-09-25T10:26:45.480Z,1025.60
2018-09-25T10:27:45.449Z,1025.59
2018-09-25T10:28:45.442Z,1025.64
2018-09-25T10:29:45.427Z,1025.60
2018-09-25T10:30:45.390Z,1025.60
2018-09-25T10:31:45.398Z,1025.59
2018-09-25T10:32:45.357Z,1025.61
2018-09-25T10:33:45.356Z,1025.65
2018-09-25T10:34:45.313Z,1025.62
2018-09-25T10:35:45.306Z,1025.64
2018-09-25T10:36:45.298Z,1025.65
2018-09-25T10:37:45.288Z,1025.66
2018-09-25T10:38:45.241Z,1025.67
2018-09-25T10:39:45.268Z,1025.68
2018-09-25T10:40:45.207Z,1025.69
2018-09-25T10:41:45.242Z,1025.70
2018-09-25T10:42:45.199Z,1025.68
2018-09-25T10:43:45.148Z,1025.71
2018-09-25T10:44:45.140Z,1025.70
2018-09-25T10:45:45.115Z,1025.71
2018-09-25T10:46:45.130Z,1025.69
2018-09-25T10:47:45.084Z,1025.70
2018-09-25T10:48:45.073Z,1025.67
2018-09-25T10:49:45.080Z,1025.65
2018-09-25T10:50:45.034Z,1025.65
2018-09-25T10:51:45.025Z,1025.67
2018-09-25T10:52:45.004Z,1025.71
2018-09-25T10:53:44.994Z,1025.65
2018-09-25T10:54:44.959Z,1025.65
2018-09-25T10:55:45.037Z,1025.65
2018-09-25T10:56:44.937Z,1025.66
2018-09-25T10:57:44.890Z,1025.66
2018-09-25T10:58:44.898Z,1025.64
2018-09-25T10:59:44.881Z,1025.63
2018-09-25T11:00:44.864Z,1025.60
2018-09-25T11:01:44.824Z,1025.56
2018-09-25T11:02:44.822Z,1025.56
2018-09-25T11:03:44.837Z,1025.50
2018-09-25T11:04:44.763Z,1025.51
2018-09-25T11:05:44.750Z,1025.50
2018-09-25T11:06:44.746Z,1025.48
2018-09-25T11:07:44.735Z,1025.54
2018-09-25T11:08:44.738Z,1025.54
2018-09-25T11:09:44.694Z,1025.55
2018-09-25T11:10:44.667Z,1025.57
2018-09-25T11:11:44.677Z,1025.58
2018-09-25T11:12:44.618Z,1025.53
2018-09-25T11:13:44.609Z,1025.50
2018-09-25T11:14:44.599Z,1025.58
2018-09-25T11:15:44.565Z,1025.55
2018-09-25T11:16:44.582Z,1025.53
2018-09-25T11:17:44.541Z,1025.51
2018-09-25T11:18:44.528Z,1025.55
2018-09-25T11:19:44.511Z,1025.56
2018-09-25T11:20:44.489Z,1025.55
2018-09-25T11:21:44.453Z,1025.54
2018-09-25T11:22:44.430Z,1025.52
2018-09-25T11:23:44.454Z,1025.53
2018-09-25T11:24:44.397Z,1025.51
2018-09-25T11:25:44.380Z,1025.50
2018-09-25T11:26:44.408Z,1025.47
2018-09-25T11:27:44.350Z,1025.48
2018-09-25T11:28:44.320Z,1025.49
2018-09-25T11:29:44.318Z,1025.48
2018-09-25T11:30:44.284Z,1025.53
2018-09-25T11:31:44.281Z,1025.50
2018-09-25T11:32:44.260Z,1025.52
2018-09-25T11:33:44.261Z,1025.56
2018-09-25T11:34:44.236Z,1025.51
2018-09-25T11:35:44.200Z,1025.54
2018-09-25T11:36:44.215Z,1025.54
2018-09-25T11:37:44.165Z,1025.50
2018-09-25T11:38:44.139Z,1025.49
2018-09-25T11:39:44.129Z,1025.45
2018-09-25T11:40:44.183Z,1025.45
2018-09-25T11:41:44.110Z,1025.42
2018-09-25T11:42:44.062Z,1025.38
2018-09-25T11:43:44.066Z,1025.35
2018-09-25T11:44:44.025Z,1025.31
2018-09-25T11:45:44.015Z,1025.29
2018-09-25T11:46:44.079Z,1025.29
2018-09-25T11:47:43.977Z,1025.28
2018-09-25T11:48:43.964Z,1025.29
2018-09-25T11:49:43.966Z,1025.24
2018-09-25T11:50:43.952Z,1025.23
2018-09-25T11:51:43.894Z,1025.22
2018-09-25T11:52:43.935Z,1025.21
2018-09-25T11:53:43.891Z,1025.25
2018-09-25T11:54:43.836Z,1025.31
2018-09-25T11:55:43.818Z,1025.31
2018-09-25T11:56:43.815Z,1025.38
2018-09-25T11:57:43.811Z,1025.39
2018-09-25T11:58:43.801Z,1025.43
2018-09-25T11:59:43.770Z,1025.45
2018-09-25T12:00:43.723Z,1025.43
2018-09-25T12:01:43.719Z,1025.41
2018-09-25T12:02:43.695Z,1025.38
2018-09-25T12:03:43.722Z,1025.36
2018-09-25T12:04:43.652Z,1025.32
2018-09-25T12:05:43.647Z,1025.32
2018-09-25T12:06:43.636Z,1025.31
2018-09-25T12:07:43.596Z,1025.25